Time,TemperatureF,DewpointF,PressureIn,WindDirection,WindDirectionDegrees,WindSpeedMPH,WindSpeedGustMPH,Humidity,HourlyPrecipIn,Conditions,Clouds,dailyrainin,SoftwareType,DateUTC
2013-09-13 00:12:00,78.1,67.0,29.96,NNE,30,3.0,-999.0,69,-99.99,,,0.00,weatherlink.com 1.10,2013-09-13 05:12:00,
2013-09-13 00:27:00,77.7,67.0,29.95,NE,34,5.0,-999.0,70,-99.99,,,0.00,weatherlink.com 1.10,2013-09-13 05:27:00,
2013-09-13 00:42:00,77.4,67.0,29.95,NNE,31,2.0,-999.0,71,-99.99,,,0.00,weatherlink.com 1.10,2013-09-13 05:42:00,
2013-09-13 00:57:00,77.0,67.0,29.95,NNE,22,3.0,-999.0,72,-99.99,,,0.00,weatherlink.com 1.10,2013-09-13 05:57:00,
2013-09-13 01:12:00,76.7,67.0,29.95,NE,36,5.0,-999.0,73,-99.99,,,0.00,weatherlink.com 1.10,2013-09-13 06:12:00,
2013-09-13 01:27:00,76.3,67.0,29.94,NNE,16,4.0,-999.0,73,-99.99,,,0.00,weatherlink.com 1.10,2013-09-13 06:27:00,
2013-09-13 01:42:00,76.1,67.0,29.94,NNE,28,5.0,-999.0,74,-99.99,,,0.00,weatherlink.com 1.10,2013-09-13 06:42:00,
2013-09-13 01:57:00,76.0,67.0,29.94,North,9,3.0,-999.0,74,-99.99,,,0.00,weatherlink.com 1.10,2013-09-13 06:57:00,
2013-09-13 02:12:00,75.6,67.0,29.95,NNE,18,3.0,-999.0,75,-99.99,,,0.00,weatherlink.com 1.10,2013-09-13 07:12:00,
2013-09-13 02:27:00,75.3,67.0,29.95,NNE,28,0.0,-999.0,76,-99.99,,,0.00,weatherlink.com 1.10,2013-09-13 07:27:00,
2013-09-13 02:42:00,75.1,67.0,29.95,NNE,32,3.0,-999.0,76,-99.99,,,0.00,weatherlink.com 1.10,2013-09-13 07:42:00,
2013-09-13 02:57:00,74.7,67.0,29.94,NE,34,0.0,-999.0,77,-99.99,,,0.00,weatherlink.com 1.10,2013-09-13 07:57:00,
2013-09-13 03:12:00,74.4,67.0,29.94,North,5,4.0,-999.0,77,-99.99,,,0.00,weatherlink.com 1.10,2013-09-13 08:12:00,
2013-09-13 03:27:00,74.0,67.0,29.94,NE,35,4.0,-999.0,78,-99.99,,,0.00,weatherlink.com 1.10,2013-09-13 08:27:00,
2013-09-13 03:42:00,73.9,67.0,29.94,NE,36,9.0,-999.0,78,-99.99,,,0.00,weatherlink.com 1.10,2013-09-13 08:42:00,
2013-09-13 03:57:00,73.5,66.0,29.94,NNE,30,3.0,-999.0,78,-99.99,,,0.00,weatherlink.com 1.10,2013-09-13 08:57:00,
2013-09-13 04:12:00,73.3,66.0,29.94,NE,46,7.0,-999.0,78,-99.99,,,0.00,weatherlink.com 1.10,2013-09-13 09:12:00,
2013-09-13 04:27:00,73.0,66.0,29.94,NE,46,5.0,-999.0,78,-99.99,,,0.00,weatherlink.com 1.10,2013-09-13 09:27:00,
2013-09-13 04:42:00,72.7,66.0,29.95,NE,36,5.0,-999.0,78,-99.99,,,0.00,weatherlink.com 1.10,2013-09-13 09:42:00,
2013-09-13 04:57:00,72.5,66.0,29.95,NE,39,9.0,-999.0,79,-99.99,,,0.00,weatherlink.com 1.10,2013-09-13 09:57:00,
2013-09-13 05:12:00,72.1,65.0,29.94,NE,41,5.0,-999.0,79,-99.99,,,0.00,weatherlink.com 1.10,2013-09-13 10:12:00,
2013-09-13 05:27:00,72.0,65.0,29.96,NNE,14,2.0,-999.0,79,-99.99,,,0.00,weatherlink.com 1.10,2013-09-13 10:27:00,
2013-09-13 05:42:00,71.8,65.0,29.96,NNE,30,7.0,-999.0,79,-99.99,,,0.00,weatherlink.com 1.10,2013-09-13 10:42:00,
2013-09-13 05:57:00,71.6,65.0,29.96,NNE,31,7.0,-999.0,79,-99.99,,,0.00,weatherlink.com 1.10,2013-09-13 10:57:00,
2013-09-13 06:12:00,71.5,64.0,29.96,NNE,33,11.0,-999.0,77,-99.99,,,0.00,weatherlink.com 1.10,2013-09-13 11:12:00,
2013-09-13 06:27:00,71.6,63.0,29.96,North,5,6.0,-999.0,74,-99.99,,,0.00,weatherlink.com 1.10,2013-09-13 11:27:00,
2013-09-13 06:42:00,71.8,62.0,29.97,NE,38,5.0,-999.0,70,-99.99,,,0.00,weatherlink.com 1.10,2013-09-13 11:42:00,
2013-09-13 06:57:00,71.8,61.0,29.97,NE,37,11.0,-999.0,68,-99.99,,,0.00,weatherlink.com 1.10,2013-09-13 11:57:00,
2013-09-13 07:12:00,71.8,61.0,29.97,NE,55,4.0,-999.0,68,-99.99,,,0.00,weatherlink.com 1.10,2013-09-13 12:12:00,
2013-09-13 07:27:00,71.6,59.0,29.97,NE,43,5.0,-999.0,64,-99.99,,,0.00,weatherlink.com 1.10,2013-09-13 12:27:00,
2013-09-13 07:42:00,71.6,58.0,29.97,NNE,32,7.0,-999.0,63,-99.99,,,0.00,weatherlink.com 1.10,2013-09-13 12:42:00,
2013-09-13 07:57:00,71.6,58.0,29.98,NNE,26,7.0,-999.0,62,-99.99,,,0.00,weatherlink.com 1.10,2013-09-13 12:57:00,
2013-09-13 08:12:00,72.1,57.0,29.98,NE,38,9.0,-999.0,60,-99.99,,,0.00,weatherlink.com 1.10,2013-09-13 13:12:00,
2013-09-13 08:27:00,72.3,57.0,29.98,ENE,57,8.0,-999.0,59,-99.99,,,0.00,weatherlink.com 1.10,2013-09-13 13:27:00,
2013-09-13 08:42:00,73.0,57.0,29.98,NE,36,6.0,-999.0,57,-99.99,,,0.00,weatherlink.com 1.10,2013-09-13 13:42:00,
2013-09-13 08:57:00,74.4,56.0,29.98,NE,41,10.0,-999.0,53,-99.99,,,0.00,weatherlink.com 1.10,2013-09-13 13:57:00,
2013-09-13 09:12:00,73.9,56.0,29.99,NE,44,12.0,-999.0,54,-99.99,,,0.00,weatherlink.com 1.10,2013-09-13 14:12:00,
2013-09-13 09:27:00,73.3,56.0,29.99,NE,45,7.0,-999.0,55,-99.99,,,0.00,weatherlink.com 1.10,2013-09-13 14:27:00,
2013-09-13 09:42:00,74.2,56.0,29.99,NE,41,3.0,-999.0,54,-99.99,,,0.00,weatherlink.com 1.10,2013-09-13 14:42:00,
2013-09-13 09:57:00,74.7,56.0,30.00,ENE,75,3.0,-999.0,52,-99.99,,,0.00,weatherlink.com 1.10,2013-09-13 14:57:00,
2013-09-13 10:12:00,74.9,55.0,30.00,NE,49,1.0,-999.0,51,-99.99,,,0.00,weatherlink.com 1.10,2013-09-13 15:12:00,
2013-09-13 10:27:00,75.1,56.0,30.00,ENE,62,2.0,-999.0,51,-99.99,,,0.00,weatherlink.com 1.10,2013-09-13 15:27:00,
2013-09-13 10:42:00,75.4,56.0,30.00,ENE,63,2.0,-999.0,51,-99.99,,,0.00,weatherlink.com 1.10,2013-09-13 15:42:00,
2013-09-13 10:57:00,76.1,55.0,30.00,NE,43,6.0,-999.0,49,-99.99,,,0.00,weatherlink.com 1.10,2013-09-13 15:57:00,
2013-09-13 11:12:00,77.2,55.0,30.00,ENE,64,2.0,-999.0,47,-99.99,,,0.00,weatherlink.com 1.10,2013-09-13 16:12:00,
2013-09-13 11:27:00,77.7,56.0,30.00,NE,43,3.0,-999.0,47,-99.99,,,0.00,weatherlink.com 1.10,2013-09-13 16:27:00,
2013-09-13 11:42:00,78.6,56.0,30.00,North,11,10.0,-999.0,46,-99.99,,,0.00,weatherlink.com 1.10,2013-09-13 16:42:00,
2013-09-13 11:57:00,80.1,56.0,30.00,NNE,33,0.0,-999.0,44,-99.99,,,0.00,weatherlink.com 1.10,2013-09-13 16:57:00,
2013-09-13 12:12:00,81.6,55.0,29.99,NNE,27,0.0,-999.0,40,-99.99,,,0.00,weatherlink.com 1.10,2013-09-13 17:12:00,
2013-09-13 12:27:00,81.8,55.0,29.99,NE,45,1.0,-999.0,40,-99.99,,,0.00,weatherlink.com 1.10,2013-09-13 17:27:00,
2013-09-13 12:42:00,83.0,56.0,29.98,NE,37,5.0,-999.0,40,-99.99,,,0.00,weatherlink.com 1.10,2013-09-13 17:42:00,
2013-09-13 12:57:00,84.1,57.0,29.98,NNE,26,5.0,-999.0,39,-99.99,,,0.00,weatherlink.com 1.10,2013-09-13 17:57:00,
2013-09-13 13:12:00,84.9,57.0,29.96,NE,54,0.0,-999.0,38,-99.99,,,0.00,weatherlink.com 1.10,2013-09-13 18:12:00,
2013-09-13 13:27:00,85.1,57.0,29.96,NE,49,7.0,-999.0,38,-99.99,,,0.00,weatherlink.com 1.10,2013-09-13 18:27:00,
2013-09-13 13:42:00,85.3,55.0,29.95,ENE,60,0.0,-999.0,35,-99.99,,,0.00,weatherlink.com 1.10,2013-09-13 18:42:00,
2013-09-13 13:57:00,86.1,55.0,29.95,NE,37,2.0,-999.0,34,-99.99,,,0.00,weatherlink.com 1.10,2013-09-13 18:57:00,
2013-09-13 14:12:00,87.2,54.0,29.94,East,93,0.0,-999.0,32,-99.99,,,0.00,weatherlink.com 1.10,2013-09-13 19:12:00,
2013-09-13 14:27:00,86.1,55.0,29.93,NE,46,0.0,-999.0,34,-99.99,,,0.00,weatherlink.com 1.10,2013-09-13 19:27:00,
2013-09-13 14:42:00,86.7,54.0,29.93,NNE,17,7.0,-999.0,33,-99.99,,,0.00,weatherlink.com 1.10,2013-09-13 19:42:00,
2013-09-13 14:57:00,86.3,54.0,29.93,NE,54,3.0,-999.0,33,-99.99,,,0.00,weatherlink.com 1.10,2013-09-13 19:57:00,
2013-09-13 15:12:00,86.7,52.0,29.92,NNE,31,6.0,-999.0,30,-99.99,,,0.00,weatherlink.com 1.10,2013-09-13 20:12:00,
2013-09-13 15:27:00,85.9,51.0,29.92,NNE,32,11.0,-999.0,30,-99.99,,,0.00,weatherlink.com 1.10,2013-09-13 20:27:00,
2013-09-13 15:42:00,85.1,51.0,29.91,NE,38,5.0,-999.0,31,-99.99,,,0.00,weatherlink.com 1.10,2013-09-13 20:42:00,
2013-09-13 15:57:00,85.1,50.0,29.91,North,9,1.0,-999.0,30,-99.99,,,0.00,weatherlink.com 1.10,2013-09-13 20:57:00,
2013-09-13 16:12:00,84.9,50.0,29.90,NNE,20,1.0,-999.0,30,-99.99,,,0.00,weatherlink.com 1.10,2013-09-13 21:12:00,
2013-09-13 16:27:00,85.9,50.0,29.90,NE,38,5.0,-999.0,29,-99.99,,,0.00,weatherlink.com 1.10,2013-09-13 21:27:00,
2013-09-13 16:42:00,85.9,51.0,29.90,NE,44,3.0,-999.0,30,-99.99,,,0.00,weatherlink.com 1.10,2013-09-13 21:42:00,
2013-09-13 16:57:00,86.7,51.0,29.89,NNE,13,6.0,-999.0,29,-99.99,,,0.00,weatherlink.com 1.10,2013-09-13 21:57:00,
2013-09-13 17:12:00,86.7,51.0,29.89,North,360,6.0,-999.0,29,-99.99,,,0.00,weatherlink.com 1.10,2013-09-13 22:12:00,
2013-09-13 17:27:00,86.3,51.0,29.89,NNE,13,3.0,-999.0,30,-99.99,,,0.00,weatherlink.com 1.10,2013-09-13 22:27:00,
2013-09-13 17:42:00,86.1,51.0,29.89,NNE,26,5.0,-999.0,30,-99.99,,,0.00,weatherlink.com 1.10,2013-09-13 22:42:00,
2013-09-13 17:57:00,85.7,51.0,29.89,North,10,4.0,-999.0,30,-99.99,,,0.00,weatherlink.com 1.10,2013-09-13 22:57:00,
2013-09-13 18:12:00,85.1,50.0,29.89,East,84,3.0,-999.0,30,-99.99,,,0.00,weatherlink.com 1.10,2013-09-13 23:12:00,
2013-09-13 18:27:00,84.7,51.0,29.90,NNE,23,6.0,-999.0,31,-99.99,,,0.00,weatherlink.com 1.10,2013-09-13 23:27:00,
2013-09-13 18:42:00,84.1,50.0,29.90,NNE,30,10.0,-999.0,31,-99.99,,,0.00,weatherlink.com 1.10,2013-09-13 23:42:00,
2013-09-13 18:57:00,82.8,49.0,29.90,North,5,11.0,-999.0,31,-99.99,,,0.00,weatherlink.com 1.10,2013-09-13 23:57:00,
2013-09-13 19:12:00,81.8,49.0,29.90,NNE,28,5.0,-999.0,32,-99.99,,,0.00,weatherlink.com 1.10,2013-09-14 00:12:00,
2013-09-13 19:27:00,80.9,48.0,29.90,NNE,24,11.0,-999.0,32,-99.99,,,0.00,weatherlink.com 1.10,2013-09-14 00:27:00,
2013-09-13 19:42:00,79.8,48.0,29.90,NE,48,7.0,-999.0,33,-99.99,,,0.00,weatherlink.com 1.10,2013-09-14 00:42:00,
2013-09-13 19:57:00,78.8,48.0,29.90,NE,36,6.0,-999.0,34,-99.99,,,0.00,weatherlink.com 1.10,2013-09-14 00:57:00,
2013-09-13 20:12:00,78.1,48.0,29.91,NNE,18,6.0,-999.0,35,-99.99,,,0.00,weatherlink.com 1.10,2013-09-14 01:12:00,
2013-09-13 20:27:00,77.4,48.0,29.91,NE,37,4.0,-999.0,36,-99.99,,,0.00,weatherlink.com 1.10,2013-09-14 01:27:00,
2013-09-13 20:42:00,76.5,49.0,29.92,NNE,17,10.0,-999.0,38,-99.99,,,0.00,weatherlink.com 1.10,2013-09-14 01:42:00,
2013-09-13 20:57:00,75.8,50.0,29.92,NE,36,4.0,-999.0,40,-99.99,,,0.00,weatherlink.com 1.10,2013-09-14 01:57:00,
2013-09-13 21:12:00,75.1,50.0,29.93,NE,35,4.0,-999.0,41,-99.99,,,0.00,weatherlink.com 1.10,2013-09-14 02:12:00,
2013-09-13 21:27:00,74.4,50.0,29.93,NE,48,10.0,-999.0,42,-99.99,,,0.00,weatherlink.com 1.10,2013-09-14 02:27:00,
2013-09-13 21:42:00,73.9,50.0,29.93,NE,42,3.0,-999.0,43,-99.99,,,0.00,weatherlink.com 1.10,2013-09-14 02:42:00,
2013-09-13 21:57:00,73.2,50.0,29.93,NE,43,1.0,-999.0,44,-99.99,,,0.00,weatherlink.com 1.10,2013-09-14 02:57:00,
2013-09-13 22:12:00,72.7,51.0,29.93,NE,46,5.0,-999.0,46,-99.99,,,0.00,weatherlink.com 1.10,2013-09-14 03:12:00,
2013-09-13 22:27:00,72.3,51.0,29.93,NE,40,6.0,-999.0,47,-99.99,,,0.00,weatherlink.com 1.10,2013-09-14 03:27:00,
2013-09-13 22:42:00,71.6,51.0,29.93,NNE,32,2.0,-999.0,48,-99.99,,,0.00,weatherlink.com 1.10,2013-09-14 03:42:00,
2013-09-13 22:57:00,70.9,51.0,29.94,NE,44,5.0,-999.0,50,-99.99,,,0.00,weatherlink.com 1.10,2013-09-14 03:57:00,
2013-09-13 23:12:00,70.4,51.0,29.94,ENE,64,0.0,-999.0,51,-99.99,,,0.00,weatherlink.com 1.10,2013-09-14 04:12:00,
2013-09-13 23:27:00,69.8,51.0,29.94,NE,34,3.0,-999.0,52,-99.99,,,0.00,weatherlink.com 1.10,2013-09-14 04:27:00,
2013-09-13 23:42:00,69.3,52.0,29.94,NNE,26,4.0,-999.0,54,-99.99,,,0.00,weatherlink.com 1.10,2013-09-14 04:42:00,
2013-09-13 23:57:00,69.1,52.0,29.94,NE,41,0.0,-999.0,54,-99.99,,,0.00,weatherlink.com 1.10,2013-09-14 04:57:00,